Terminal Aerodrome Forecast
Issued by NWS

Home | Current Version | Previous Version | Text Only | Print | Product List | Glossary On
Versions: 1 2 3 4 5 6 7 8 9 10 11 12 13 14 15 16 17 18 19 20 21 22 23 24 25 26 27 28 29 30
000
FTUS44 KHGX 022339
TAFLBX
TAF
KLBX 022339Z 0300/0324 07014G22KT P6SM VCSH SCT011 OVC028
      TEMPO 0300/0304 2SM SHRA BKN010 OVC025
     FM030400 09014G22KT 6SM -SHRA BR SCT015 BKN025
     FM030800 11013G21KT 4SM SHRA BR SCT007 OVC015
     FM031800 14013G21KT 3SM TSRA BR SCT004 BKN007 OVC012CB=

USA.gov is the U.S. government's official web portal to all federal, state and local government web resources and services.